Disclaimer

Please do not use the information listed here in-flight or in-navigation, as they are not provided to us by the airports but are provided by volunteers, so they might be outdated.

Search


Regions


Airport information page

Radio informations:
Automatic Terminal Information Service (ATIS) - 117.0 MHz

Airport informations:
Latitude: 32° 58' 08.00" S
Longitude: 018° 09' 37.00" E
Elevation: 108 feet - 33 meters
Operating hours: Remarks
Operating agency: Military
Timezone: UTC+2
Fuel: Jet A1, without icing nhibitor.

100/130 MIL Spec, low lead, aviation gasoline (BLUE)

Runway information:
02R/20L - 7689 x 150 feet< - >2344 x 46 meters
02L/20R - 7680 x 150 feet< - >2341 x 46 meters
07/25 - 4935 x 150 feet< - >1504 x 46 meters
16/34 - 6533 x 150 feet< - >1991 x 46 meters

Recent METARs:
FALW 160200Z AUTO 23006KT //// // ////// 15/13 Q1014
FALW 160300Z AUTO 24005KT //// // ////// 15/13 Q1014
FALW 160300Z AUTO 24005KT //// // ////// 15/13 Q1014

Airport on the map: